createdAt,value
2023-04-13T04:54:08.433Z,99390.63
2023-04-13T05:04:26.189Z,99399.69
2023-04-13T05:07:30.501Z,99399.28
2023-04-13T05:10:33.170Z,99398.78
2023-04-13T05:13:37.759Z,99385.72
2023-04-13T05:16:40.440Z,99389.97
2023-04-13T05:19:44.583Z,99384.53
2023-04-13T05:43:46.192Z,99408.59
2023-04-13T05:46:50.502Z,99420.44
2023-04-13T05:49:53.057Z,99420.59
2023-04-13T05:52:55.941Z,99430.25
2023-04-13T05:55:59.382Z,99433.31
2023-04-13T05:59:04.234Z,99430.75
2023-04-13T06:02:07.259Z,99439.63
2023-04-13T06:05:14.780Z,99446.16
2023-04-13T06:08:17.225Z,99465.38
2023-04-13T06:11:21.164Z,99475.44
2023-04-13T06:14:25.695Z,99498.28
2023-04-13T06:17:28.546Z,99503.88
2023-04-13T06:20:31.777Z,99526.44
2023-04-13T06:23:34.315Z,99527.78
2023-04-13T06:26:37.435Z,99540.56
2023-04-13T06:29:41.641Z,99553.47
2023-04-13T06:32:44.310Z,99553.13
2023-04-13T06:35:46.868Z,99568.03
2023-04-13T06:38:49.725Z,99572.53
2023-04-13T06:41:52.278Z,99570.31
2023-04-13T06:44:56.351Z,99572.47
2023-04-13T06:47:58.869Z,99572.38
2023-04-13T06:51:01.710Z,99575.09
2023-04-13T06:54:04.354Z,99576.16
2023-04-13T06:57:07.171Z,99574.09
2023-04-13T07:00:28.294Z,99574.09
2023-04-13T07:03:32.058Z,99581.16
2023-04-13T07:06:35.343Z,99585.28
2023-04-13T07:09:37.861Z,99584.06
2023-04-13T07:12:40.383Z,99587.44
2023-04-13T07:15:44.639Z,99595.56
2023-04-13T07:18:47.538Z,99593.88
2023-04-13T07:21:50.129Z,99604.88
2023-04-13T07:24:52.622Z,99619.25
2023-04-13T07:27:55.264Z,99618.50
2023-04-13T07:30:59.145Z,99617.38
2023-04-13T07:34:01.657Z,99619.63
2023-04-13T07:37:04.154Z,99624.16
2023-04-13T07:40:08.246Z,99608.44
2023-04-13T07:43:11.056Z,99610.03
2023-04-13T07:46:14.935Z,99616.97
2023-04-13T07:49:17.458Z,99613.13
2023-04-13T07:52:20.457Z,99621.34
2023-04-13T07:55:23.134Z,99615.78
2023-04-13T07:58:25.664Z,99631.03
2023-04-13T08:01:29.839Z,99619.38
2023-04-13T08:04:32.806Z,99621.97
2023-04-13T08:07:35.415Z,99622.94
2023-04-13T08:10:37.915Z,99638.72
2023-04-13T08:13:41.602Z,99651.72
2023-04-13T08:16:45.495Z,99648.44
2023-04-13T08:19:48.150Z,99645.34
2023-04-13T08:22:50.719Z,99634.78
2023-04-13T08:25:53.589Z,99645.84
2023-04-13T08:28:57.632Z,99640.97
2023-04-13T08:32:01.819Z,99648.47
2023-04-13T08:35:07.351Z,99642.53
2023-04-13T08:38:10.171Z,99640.09
2023-04-13T08:41:12.908Z,99636.78
2023-04-13T08:44:16.204Z,99642.81
2023-04-13T08:47:20.176Z,99646.38
2023-04-13T08:50:23.854Z,99665.84
2023-04-13T08:53:26.429Z,99667.81
2023-04-13T08:56:42.241Z,99662.13
2023-04-13T08:59:50.510Z,99671.00
2023-04-13T09:03:05.438Z,99680.44
2023-04-13T09:06:13.122Z,99675.91
2023-04-13T09:09:17.036Z,99722.72
2023-04-13T09:12:19.601Z,99445.53
2023-04-13T09:15:23.977Z,99637.97
2023-04-13T09:18:28.362Z,99656.28
2023-04-13T09:21:37.512Z,99659.69
2023-04-13T09:24:40.978Z,99667.28
2023-04-13T09:27:43.493Z,99666.66
2023-04-13T09:30:47.051Z,99669.97
2023-04-13T09:33:53.095Z,99660.69
2023-04-13T09:36:56.785Z,99659.41
2023-04-13T09:40:11.690Z,99658.50
2023-04-13T09:43:14.365Z,99651.63
2023-04-13T09:46:16.974Z,99658.97
2023-04-13T09:49:20.969Z,99668.16
2023-04-13T09:52:24.680Z,99670.59
2023-04-13T09:55:28.868Z,99681.53
2023-04-13T09:58:32.043Z,99670.53
2023-04-13T10:01:35.536Z,99677.25
2023-04-13T10:04:39.715Z,99679.50
2023-04-13T10:07:44.394Z,99672.81
2023-04-13T10:10:48.290Z,99669.41
2023-04-13T10:13:54.798Z,99663.81
2023-04-13T10:17:16.803Z,99669.41
2023-04-13T10:20:21.393Z,99682.22
2023-04-13T10:23:24.973Z,99666.97
2023-04-13T10:26:31.615Z,99664.66
2023-04-13T10:29:35.198Z,99673.38
2023-04-13T10:32:37.816Z,99666.13
2023-04-13T10:35:43.447Z,99671.78
2023-04-13T10:38:47.450Z,99671.56
2023-04-13T10:41:59.680Z,99653.38
2023-04-13T10:45:02.261Z,99657.66
2023-04-13T10:48:06.103Z,99663.53
2023-04-13T10:51:12.037Z,99671.78
2023-04-13T10:54:15.435Z,99671.63
2023-04-13T10:57:18.062Z,99670.81
2023-04-13T11:00:29.353Z,99675.03
2023-04-13T11:03:50.027Z,99670.91
2023-04-13T11:07:01.339Z,99664.00
2023-04-13T11:10:05.587Z,99671.47
2023-04-13T11:13:08.099Z,99689.38
2023-04-13T11:16:10.972Z,99694.59
2023-04-13T11:19:13.498Z,99684.50
2023-04-13T11:22:18.670Z,99687.09
2023-04-13T11:25:21.157Z,99687.94
2023-04-13T11:28:24.773Z,99686.03
2023-04-13T11:31:37.348Z,99687.50
2023-04-13T11:34:39.903Z,99694.66
2023-04-13T11:37:47.050Z,99703.66
2023-04-13T11:40:49.801Z,99703.47
2023-04-13T11:43:52.410Z,99709.59
2023-04-13T11:46:56.476Z,99714.63
2023-04-13T11:49:59.509Z,99720.72
2023-04-13T11:53:04.611Z,99711.47
2023-04-13T11:56:08.270Z,99698.50
2023-04-13T11:59:10.782Z,99702.16
2023-04-13T12:02:21.909Z,99706.47
2023-04-13T12:05:27.197Z,99704.13
2023-04-13T12:08:32.225Z,99705.69
2023-04-13T12:11:42.295Z,99706.53
2023-04-13T12:15:08.564Z,99717.84
2023-04-13T12:18:17.934Z,99715.38
2023-04-13T12:21:23.672Z,99721.16
2023-04-13T12:24:34.708Z,99724.34
2023-04-13T12:27:41.021Z,99718.56
2023-04-13T12:30:47.108Z,99716.94
2023-04-13T12:33:49.596Z,99720.97
2023-04-13T12:36:52.134Z,99713.75
2023-04-13T12:39:55.968Z,99713.59
2023-04-13T12:42:58.561Z,99724.16
2023-04-13T12:46:01.149Z,99728.25
2023-04-13T12:49:03.787Z,99729.69
2023-04-13T12:52:07.018Z,99722.75
2023-04-13T12:55:11.232Z,99711.09
2023-04-13T12:58:13.741Z,99710.25
2023-04-13T13:01:16.280Z,99722.94
2023-04-13T13:04:18.946Z,99721.06
2023-04-13T13:07:21.612Z,99757.88
2023-04-13T13:10:29.465Z,99730.53
2023-04-13T13:13:32.630Z,99712.91
2023-04-13T13:16:35.200Z,99721.31
2023-04-13T13:19:37.789Z,99727.69
2023-04-13T13:22:40.436Z,99722.22
2023-04-13T13:25:52.721Z,99725.97
2023-04-13T13:29:06.805Z,99716.41
2023-04-13T13:32:10.405Z,99703.84
2023-04-13T13:35:14.089Z,99700.59
2023-04-13T13:38:16.669Z,99696.31
2023-04-13T13:41:21.125Z,99699.81
2023-04-13T13:44:23.773Z,99705.47
2023-04-13T13:47:26.435Z,99703.06
2023-04-13T13:50:29.044Z,99715.06
2023-04-13T13:53:31.815Z,99716.63
2023-04-13T13:56:35.854Z,99694.38
2023-04-13T13:59:38.327Z,99692.56
2023-04-13T14:02:40.903Z,99703.84
2023-04-13T14:05:44.081Z,99701.13
2023-04-13T14:08:46.615Z,99700.19
2023-04-13T14:11:51.286Z,99702.34
2023-04-13T14:14:53.764Z,99718.69
2023-04-13T14:21:05.432Z,99712.84
2023-04-13T14:24:08.417Z,99688.66
2023-04-13T14:27:12.291Z,99679.69
2023-04-13T14:30:17.464Z,99683.69
2023-04-13T14:33:19.990Z,99676.59
2023-04-13T14:36:22.663Z,99678.41
2023-04-13T14:39:26.079Z,99674.28
2023-04-13T14:42:30.804Z,99681.47
2023-04-13T14:45:33.334Z,99692.13
2023-04-13T14:48:36.076Z,99675.25
2023-04-13T14:51:39.187Z,99571.47
2023-04-13T14:54:41.916Z,99609.63
2023-04-13T14:57:47.066Z,99591.47
2023-04-13T15:00:49.850Z,99593.25
2023-04-13T15:03:53.659Z,99585.63
2023-04-13T15:06:56.478Z,99597.56
2023-04-13T15:09:59.150Z,99600.44
2023-04-13T15:13:04.152Z,99592.56
2023-04-13T15:16:07.865Z,99589.84
2023-04-13T15:19:10.728Z,99597.28
2023-04-13T15:22:13.328Z,99599.53
2023-04-13T15:25:16.044Z,99601.63
2023-04-13T15:28:19.977Z,99611.88
2023-04-13T15:31:22.818Z,99617.06
2023-04-13T15:34:25.333Z,99622.06
2023-04-13T15:37:27.994Z,99628.91
2023-04-13T15:40:32.787Z,99626.50
2023-04-13T15:43:36.649Z,99613.56
2023-04-13T15:46:40.132Z,99624.31
2023-04-13T15:49:42.625Z,99633.63
2023-04-13T15:52:45.315Z,99630.97
2023-04-13T15:55:48.520Z,99638.41
2023-04-13T15:58:52.326Z,99640.56
2023-04-13T16:01:55.141Z,99639.47
2023-04-13T16:04:57.814Z,99640.25
2023-04-13T16:08:00.471Z,99647.81
2023-04-13T16:11:03.046Z,99646.00
2023-04-13T16:14:09.142Z,99644.97
2023-04-13T16:17:12.066Z,99643.31
2023-04-13T16:20:21.925Z,99645.88
2023-04-13T16:23:24.754Z,99639.22
2023-04-13T16:26:27.590Z,99648.53
2023-04-13T16:29:32.712Z,99654.06
2023-04-13T16:32:35.547Z,99661.03
2023-04-13T16:35:38.184Z,99665.50
2023-04-13T16:38:42.030Z,99672.13
2023-04-13T16:41:44.675Z,99676.25
2023-04-13T16:44:48.980Z,99671.44
2023-04-13T16:47:53.872Z,99670.72
2023-04-13T16:50:58.886Z,99680.50
2023-04-13T16:54:01.629Z,99680.97
2023-04-13T16:57:04.329Z,99688.19
2023-04-13T17:00:10.804Z,99688.94
2023-04-13T17:03:13.594Z,99691.94
2023-04-13T17:06:16.407Z,99696.03
2023-04-13T17:09:18.904Z,99706.78
2023-04-13T17:12:22.574Z,99705.47
2023-04-13T17:15:26.540Z,99705.94
2023-04-13T17:18:29.006Z,99715.38
2023-04-13T17:21:31.511Z,99706.56
2023-04-13T17:24:34.943Z,99711.03
2023-04-13T17:27:37.604Z,99721.25
2023-04-13T17:30:41.514Z,99725.53
2023-04-13T17:33:44.970Z,99723.50
2023-04-13T17:36:47.776Z,99726.47
2023-04-13T17:39:51.447Z,99724.81
2023-04-13T17:42:54.269Z,99736.72
2023-04-13T17:45:58.176Z,99732.81
2023-04-13T17:49:00.943Z,99743.06
2023-04-13T17:52:03.539Z,99743.59
2023-04-13T17:55:07.385Z,99744.41
2023-04-13T17:58:10.706Z,99735.53
2023-04-13T18:01:14.766Z,99731.88
2023-04-13T18:04:17.498Z,99732.13
2023-04-13T18:07:21.716Z,99736.69
2023-04-13T18:10:24.718Z,99740.81
2023-04-13T18:13:27.446Z,99750.06
2023-04-13T18:16:32.504Z,99757.69
2023-04-13T18:19:35.059Z,99756.66
2023-04-13T18:22:37.884Z,99748.34
2023-04-13T18:25:40.607Z,99753.88
2023-04-13T18:28:43.173Z,99757.22
2023-04-13T18:31:47.096Z,99746.63
2023-04-13T18:34:50.638Z,99753.06
2023-04-13T18:37:53.208Z,99763.72
2023-04-13T18:40:55.836Z,99749.25
2023-04-13T18:43:58.698Z,99756.03
2023-04-13T18:47:02.989Z,99765.06
2023-04-13T18:50:06.510Z,99759.72
2023-04-13T18:53:09.022Z,99764.47
2023-04-13T18:56:11.526Z,99766.41
2023-04-13T18:59:14.061Z,99774.50
2023-04-13T19:02:18.113Z,99779.00
2023-04-13T19:05:21.168Z,99783.22
2023-04-13T19:08:23.754Z,99780.59
2023-04-13T19:11:27.551Z,99788.22
2023-04-13T19:14:30.525Z,99788.63
2023-04-13T19:17:34.470Z,99790.78
2023-04-13T19:20:37.054Z,99797.81
2023-04-13T19:23:40.639Z,99805.31
2023-04-13T19:26:43.404Z,99816.97
2023-04-13T19:29:45.934Z,99811.41
2023-04-13T19:32:51.955Z,99824.09
2023-04-13T19:35:54.554Z,99829.09
2023-04-13T19:38:57.149Z,99831.31
2023-04-13T19:42:00.232Z,99834.59
2023-04-13T19:45:03.023Z,99845.09
2023-04-13T19:48:06.959Z,99856.38
2023-04-13T19:51:09.500Z,99860.19
2023-04-13T19:54:12.375Z,99864.00
2023-04-13T19:57:15.068Z,99858.03
2023-04-13T20:00:21.924Z,99857.13
2023-04-13T20:03:28.354Z,99862.53
2023-04-13T20:06:31.506Z,99863.47
2023-04-13T20:09:34.191Z,99867.72
2023-04-13T20:12:36.680Z,99870.50
2023-04-13T20:15:39.551Z,99869.94
2023-04-13T20:18:43.809Z,99881.97
2023-04-13T20:21:46.777Z,99884.75
2023-04-13T20:24:49.595Z,99878.63
2023-04-13T20:27:52.079Z,99886.19
2023-04-13T20:30:54.597Z,99879.53
2023-04-13T20:33:59.026Z,99867.09
2023-04-13T20:37:01.855Z,99866.84
2023-04-13T20:40:06.928Z,99862.19
2023-04-13T20:43:10.877Z,99864.34
2023-04-13T20:46:13.927Z,99858.16
2023-04-13T20:49:17.805Z,99857.16
2023-04-13T20:52:20.284Z,99849.47
2023-04-13T20:55:24.318Z,99853.19
2023-04-13T20:58:28.662Z,99854.06
2023-04-13T21:01:31.804Z,99846.56
2023-04-13T21:04:35.851Z,99842.81
2023-04-13T21:07:40.322Z,99842.34
2023-04-13T21:10:43.572Z,99847.78
2023-04-13T21:13:46.170Z,99844.56
